sensor_id;sensor_type;location;lat;lon;timestamp;P1;durP1;ratioP1;P2;durP2;ratioP2
60582;SDS011;46415;47.536;19.066;2022-12-24T00:00:38;23.58;;;9.63;;
60582;SDS011;46415;47.536;19.066;2022-12-24T00:03:41;32.03;;;12.15;;
60582;SDS011;46415;47.536;19.066;2022-12-24T00:06:44;20.77;;;11.07;;
60582;SDS011;46415;47.536;19.066;2022-12-24T00:09:47;25.55;;;12.35;;
60582;SDS011;46415;47.536;19.066;2022-12-24T00:12:50;26.77;;;11.93;;
60582;SDS011;46415;47.536;19.066;2022-12-24T00:15:52;18.70;;;10.85;;
60582;SDS011;46415;47.536;19.066;2022-12-24T00:18:55;26.37;;;12.10;;
60582;SDS011;46415;47.536;19.066;2022-12-24T00:21:58;24.48;;;11.20;;
60582;SDS011;46415;47.536;19.066;2022-12-24T00:25:01;28.50;;;12.35;;
60582;SDS011;46415;47.536;19.066;2022-12-24T00:28:06;25.37;;;11.23;;
60582;SDS011;46415;47.536;19.066;2022-12-24T00:31:14;25.88;;;12.85;;
60582;SDS011;46415;47.536;19.066;2022-12-24T00:34:21;22.95;;;10.45;;
60582;SDS011;46415;47.536;19.066;2022-12-24T00:37:24;20.80;;;10.65;;
60582;SDS011;46415;47.536;19.066;2022-12-24T00:40:29;25.52;;;12.75;;
60582;SDS011;46415;47.536;19.066;2022-12-24T00:43:33;28.58;;;12.65;;
60582;SDS011;46415;47.536;19.066;2022-12-24T00:46:39;33.85;;;13.80;;
60582;SDS011;46415;47.536;19.066;2022-12-24T00:49:42;21.73;;;12.32;;
60582;SDS011;46415;47.536;19.066;2022-12-24T00:52:45;19.95;;;11.02;;
60582;SDS011;46415;47.536;19.066;2022-12-24T00:55:48;25.65;;;10.93;;
60582;SDS011;46415;47.536;19.066;2022-12-24T00:58:54;32.03;;;13.07;;
60582;SDS011;46415;47.536;19.066;2022-12-24T01:01:56;24.42;;;12.52;;
60582;SDS011;46415;47.536;19.066;2022-12-24T01:05:00;24.12;;;11.57;;
60582;SDS011;46415;47.536;19.066;2022-12-24T01:08:11;22.42;;;12.45;;
60582;SDS011;46415;47.536;19.066;2022-12-24T01:11:14;27.70;;;12.60;;
60582;SDS011;46415;47.536;19.066;2022-12-24T01:14:17;24.30;;;9.77;;
60582;SDS011;46415;47.536;19.066;2022-12-24T01:17:20;20.77;;;11.50;;
60582;SDS011;46415;47.536;19.066;2022-12-24T01:20:27;27.27;;;12.55;;
60582;SDS011;46415;47.536;19.066;2022-12-24T01:23:33;23.80;;;12.57;;
60582;SDS011;46415;47.536;19.066;2022-12-24T01:26:35;20.02;;;11.07;;
60582;SDS011;46415;47.536;19.066;2022-12-24T01:29:38;25.02;;;10.57;;
60582;SDS011;46415;47.536;19.066;2022-12-24T01:32:41;25.88;;;11.50;;
60582;SDS011;46415;47.536;19.066;2022-12-24T01:35:44;22.02;;;10.10;;
60582;SDS011;46415;47.536;19.066;2022-12-24T01:38:47;19.55;;;11.00;;
60582;SDS011;46415;47.536;19.066;2022-12-24T01:41:50;24.30;;;12.13;;
60582;SDS011;46415;47.536;19.066;2022-12-24T01:48:58;16.87;;;9.30;;
60582;SDS011;46415;47.536;19.066;2022-12-24T01:52:07;19.05;;;10.32;;
60582;SDS011;46415;47.536;19.066;2022-12-24T01:55:13;18.52;;;13.05;;
60582;SDS011;46415;47.536;19.066;2022-12-24T01:58:20;27.90;;;13.25;;
60582;SDS011;46415;47.536;19.066;2022-12-24T02:01:25;22.92;;;13.02;;
60582;SDS011;46415;47.536;19.066;2022-12-24T02:08:04;25.50;;;13.05;;
60582;SDS011;46415;47.536;19.066;2022-12-24T02:11:12;23.80;;;12.98;;
60582;SDS011;46415;47.536;19.066;2022-12-24T02:14:17;28.10;;;13.85;;
60582;SDS011;46415;47.536;19.066;2022-12-24T02:17:31;25.58;;;12.70;;
60582;SDS011;46415;47.536;19.066;2022-12-24T02:24:00;29.45;;;13.62;;
60582;SDS011;46415;47.536;19.066;2022-12-24T02:30:47;25.27;;;12.40;;
60582;SDS011;46415;47.536;19.066;2022-12-24T02:33:57;22.70;;;11.35;;
60582;SDS011;46415;47.536;19.066;2022-12-24T02:37:09;27.37;;;13.20;;
60582;SDS011;46415;47.536;19.066;2022-12-24T02:43:53;25.62;;;12.45;;
60582;SDS011;46415;47.536;19.066;2022-12-24T02:46:58;24.87;;;12.60;;
60582;SDS011;46415;47.536;19.066;2022-12-24T02:50:06;23.58;;;11.23;;
60582;SDS011;46415;47.536;19.066;2022-12-24T02:53:13;23.02;;;13.45;;
60582;SDS011;46415;47.536;19.066;2022-12-24T03:05:52;22.33;;;12.75;;
60582;SDS011;46415;47.536;19.066;2022-12-24T03:09:04;25.37;;;12.95;;
60582;SDS011;46415;47.536;19.066;2022-12-24T03:12:15;23.83;;;11.90;;
60582;SDS011;46415;47.536;19.066;2022-12-24T03:15:28;23.77;;;12.57;;
60582;SDS011;46415;47.536;19.066;2022-12-24T03:18:32;18.95;;;11.12;;
60582;SDS011;46415;47.536;19.066;2022-12-24T03:21:35;25.85;;;13.43;;
60582;SDS011;46415;47.536;19.066;2022-12-24T03:24:40;20.30;;;13.55;;
60582;SDS011;46415;47.536;19.066;2022-12-24T03:27:43;25.55;;;13.27;;
60582;SDS011;46415;47.536;19.066;2022-12-24T03:30:47;23.23;;;13.02;;
60582;SDS011;46415;47.536;19.066;2022-12-24T03:33:50;22.17;;;12.60;;
60582;SDS011;46415;47.536;19.066;2022-12-24T03:36:54;20.60;;;11.25;;
60582;SDS011;46415;47.536;19.066;2022-12-24T03:40:04;23.02;;;12.73;;
60582;SDS011;46415;47.536;19.066;2022-12-24T03:43:08;19.77;;;11.15;;
60582;SDS011;46415;47.536;19.066;2022-12-24T03:46:11;22.87;;;12.95;;
60582;SDS011;46415;47.536;19.066;2022-12-24T03:49:13;27.95;;;13.55;;
60582;SDS011;46415;47.536;19.066;2022-12-24T03:52:16;19.87;;;10.98;;
60582;SDS011;46415;47.536;19.066;2022-12-24T03:55:19;19.15;;;10.35;;
60582;SDS011;46415;47.536;19.066;2022-12-24T03:58:22;20.90;;;11.95;;
60582;SDS011;46415;47.536;19.066;2022-12-24T04:01:26;19.77;;;11.57;;
60582;SDS011;46415;47.536;19.066;2022-12-24T04:04:29;19.30;;;9.73;;
60582;SDS011;46415;47.536;19.066;2022-12-24T04:07:33;23.65;;;13.40;;
60582;SDS011;46415;47.536;19.066;2022-12-24T04:10:38;22.48;;;12.73;;
60582;SDS011;46415;47.536;19.066;2022-12-24T04:13:41;23.60;;;12.00;;
60582;SDS011;46415;47.536;19.066;2022-12-24T04:16:45;25.98;;;13.60;;
60582;SDS011;46415;47.536;19.066;2022-12-24T04:19:47;20.73;;;11.18;;
60582;SDS011;46415;47.536;19.066;2022-12-24T04:22:51;15.60;;;10.50;;
60582;SDS011;46415;47.536;19.066;2022-12-24T04:25:54;19.48;;;11.88;;
60582;SDS011;46415;47.536;19.066;2022-12-24T04:28:58;19.20;;;12.45;;
60582;SDS011;46415;47.536;19.066;2022-12-24T04:32:01;18.33;;;10.25;;
60582;SDS011;46415;47.536;19.066;2022-12-24T04:35:04;20.08;;;11.68;;
60582;SDS011;46415;47.536;19.066;2022-12-24T04:38:07;25.62;;;13.32;;
60582;SDS011;46415;47.536;19.066;2022-12-24T04:41:16;22.45;;;12.25;;
60582;SDS011;46415;47.536;19.066;2022-12-24T04:44:25;22.52;;;12.43;;
60582;SDS011;46415;47.536;19.066;2022-12-24T04:47:28;22.35;;;12.90;;
60582;SDS011;46415;47.536;19.066;2022-12-24T04:50:33;17.33;;;12.55;;
60582;SDS011;46415;47.536;19.066;2022-12-24T04:53:36;21.73;;;11.75;;
60582;SDS011;46415;47.536;19.066;2022-12-24T04:56:40;22.35;;;12.63;;
60582;SDS011;46415;47.536;19.066;2022-12-24T04:59:43;21.92;;;10.82;;
60582;SDS011;46415;47.536;19.066;2022-12-24T05:02:46;20.42;;;11.80;;
60582;SDS011;46415;47.536;19.066;2022-12-24T05:05:49;21.87;;;11.77;;
60582;SDS011;46415;47.536;19.066;2022-12-24T05:08:57;23.73;;;12.05;;
60582;SDS011;46415;47.536;19.066;2022-12-24T05:12:01;24.83;;;12.50;;
60582;SDS011;46415;47.536;19.066;2022-12-24T05:15:04;20.12;;;12.37;;
60582;SDS011;46415;47.536;19.066;2022-12-24T05:18:08;21.65;;;11.52;;
60582;SDS011;46415;47.536;19.066;2022-12-24T05:21:15;19.67;;;10.40;;
60582;SDS011;46415;47.536;19.066;2022-12-24T05:24:19;18.00;;;10.70;;
60582;SDS011;46415;47.536;19.066;2022-12-24T05:27:41;22.77;;;12.20;;
60582;SDS011;46415;47.536;19.066;2022-12-24T05:30:52;20.37;;;10.68;;
60582;SDS011;46415;47.536;19.066;2022-12-24T05:33:55;24.33;;;13.68;;
60582;SDS011;46415;47.536;19.066;2022-12-24T05:36:58;19.17;;;12.18;;
60582;SDS011;46415;47.536;19.066;2022-12-24T05:40:01;24.45;;;12.98;;
60582;SDS011;46415;47.536;19.066;2022-12-24T05:43:05;20.02;;;11.15;;
60582;SDS011;46415;47.536;19.066;2022-12-24T05:46:09;20.20;;;11.68;;
60582;SDS011;46415;47.536;19.066;2022-12-24T05:49:13;19.58;;;12.50;;
60582;SDS011;46415;47.536;19.066;2022-12-24T05:52:16;21.75;;;11.00;;
60582;SDS011;46415;47.536;19.066;2022-12-24T05:55:19;26.15;;;11.93;;
60582;SDS011;46415;47.536;19.066;2022-12-24T05:58:22;21.12;;;11.93;;
60582;SDS011;46415;47.536;19.066;2022-12-24T06:01:25;20.17;;;12.40;;
60582;SDS011;46415;47.536;19.066;2022-12-24T06:04:28;20.95;;;12.85;;
60582;SDS011;46415;47.536;19.066;2022-12-24T06:07:31;16.95;;;11.38;;
60582;SDS011;46415;47.536;19.066;2022-12-24T06:10:40;17.73;;;10.98;;
60582;SDS011;46415;47.536;19.066;2022-12-24T06:13:43;17.80;;;11.77;;
60582;SDS011;46415;47.536;19.066;2022-12-24T06:16:46;20.25;;;11.73;;
60582;SDS011;46415;47.536;19.066;2022-12-24T06:19:49;17.45;;;11.35;;
60582;SDS011;46415;47.536;19.066;2022-12-24T06:22:52;18.05;;;10.73;;
60582;SDS011;46415;47.536;19.066;2022-12-24T06:25:55;22.95;;;13.07;;
60582;SDS011;46415;47.536;19.066;2022-12-24T06:28:59;32.10;;;11.77;;
60582;SDS011;46415;47.536;19.066;2022-12-24T06:32:02;19.77;;;12.07;;
60582;SDS011;46415;47.536;19.066;2022-12-24T06:35:05;23.45;;;12.70;;
60582;SDS011;46415;47.536;19.066;2022-12-24T06:38:08;22.62;;;11.50;;
60582;SDS011;46415;47.536;19.066;2022-12-24T06:41:12;17.12;;;11.10;;
60582;SDS011;46415;47.536;19.066;2022-12-24T06:44:15;21.77;;;12.63;;
60582;SDS011;46415;47.536;19.066;2022-12-24T06:47:18;20.55;;;12.75;;
60582;SDS011;46415;47.536;19.066;2022-12-24T06:50:23;17.67;;;12.20;;
60582;SDS011;46415;47.536;19.066;2022-12-24T06:53:27;18.05;;;11.70;;
60582;SDS011;46415;47.536;19.066;2022-12-24T06:56:29;19.37;;;10.90;;
60582;SDS011;46415;47.536;19.066;2022-12-24T06:59:32;23.58;;;11.90;;
60582;SDS011;46415;47.536;19.066;2022-12-24T07:02:38;19.40;;;12.20;;
60582;SDS011;46415;47.536;19.066;2022-12-24T07:05:44;18.25;;;11.02;;
60582;SDS011;46415;47.536;19.066;2022-12-24T07:08:47;18.95;;;11.12;;
60582;SDS011;46415;47.536;19.066;2022-12-24T07:11:50;20.55;;;12.80;;
60582;SDS011;46415;47.536;19.066;2022-12-24T07:14:53;18.35;;;11.38;;
60582;SDS011;46415;47.536;19.066;2022-12-24T07:17:56;26.00;;;13.70;;
60582;SDS011;46415;47.536;19.066;2022-12-24T07:21:02;21.20;;;11.93;;
60582;SDS011;46415;47.536;19.066;2022-12-24T07:24:08;20.75;;;12.55;;
60582;SDS011;46415;47.536;19.066;2022-12-24T07:27:11;24.00;;;12.30;;
60582;SDS011;46415;47.536;19.066;2022-12-24T07:30:14;19.60;;;11.57;;
60582;SDS011;46415;47.536;19.066;2022-12-24T07:33:17;21.33;;;11.93;;
60582;SDS011;46415;47.536;19.066;2022-12-24T07:36:20;19.67;;;10.38;;
60582;SDS011;46415;47.536;19.066;2022-12-24T07:39:23;18.80;;;11.23;;
60582;SDS011;46415;47.536;19.066;2022-12-24T07:42:26;16.00;;;10.73;;
60582;SDS011;46415;47.536;19.066;2022-12-24T07:45:29;17.58;;;10.70;;
60582;SDS011;46415;47.536;19.066;2022-12-24T07:48:32;16.98;;;10.30;;
60582;SDS011;46415;47.536;19.066;2022-12-24T07:51:35;19.25;;;11.00;;
60582;SDS011;46415;47.536;19.066;2022-12-24T07:54:38;17.90;;;11.27;;
60582;SDS011;46415;47.536;19.066;2022-12-24T07:57:41;20.30;;;11.32;;
60582;SDS011;46415;47.536;19.066;2022-12-24T08:00:45;18.80;;;12.07;;
60582;SDS011;46415;47.536;19.066;2022-12-24T08:03:48;19.85;;;11.20;;
60582;SDS011;46415;47.536;19.066;2022-12-24T08:06:56;17.52;;;10.70;;
60582;SDS011;46415;47.536;19.066;2022-12-24T08:09:59;15.02;;;10.57;;
60582;SDS011;46415;47.536;19.066;2022-12-24T08:13:01;20.48;;;12.57;;
60582;SDS011;46415;47.536;19.066;2022-12-24T08:16:04;17.48;;;11.48;;
60582;SDS011;46415;47.536;19.066;2022-12-24T08:19:07;18.58;;;11.07;;
60582;SDS011;46415;47.536;19.066;2022-12-24T08:22:10;24.80;;;13.13;;
60582;SDS011;46415;47.536;19.066;2022-12-24T08:25:13;15.27;;;11.00;;
60582;SDS011;46415;47.536;19.066;2022-12-24T08:28:17;21.92;;;12.23;;
60582;SDS011;46415;47.536;19.066;2022-12-24T08:31:24;16.20;;;10.68;;
60582;SDS011;46415;47.536;19.066;2022-12-24T08:34:27;20.12;;;12.90;;
60582;SDS011;46415;47.536;19.066;2022-12-24T08:37:29;22.02;;;12.35;;
60582;SDS011;46415;47.536;19.066;2022-12-24T08:40:33;17.67;;;11.68;;
60582;SDS011;46415;47.536;19.066;2022-12-24T08:43:36;17.87;;;11.35;;
60582;SDS011;46415;47.536;19.066;2022-12-24T08:46:39;21.65;;;12.90;;
60582;SDS011;46415;47.536;19.066;2022-12-24T08:49:42;15.15;;;10.85;;
60582;SDS011;46415;47.536;19.066;2022-12-24T08:52:45;17.12;;;10.88;;
60582;SDS011;46415;47.536;19.066;2022-12-24T08:55:47;19.60;;;12.10;;
60582;SDS011;46415;47.536;19.066;2022-12-24T08:58:57;19.05;;;11.30;;
60582;SDS011;46415;47.536;19.066;2022-12-24T09:02:00;23.08;;;12.50;;
60582;SDS011;46415;47.536;19.066;2022-12-24T09:05:04;19.65;;;11.75;;
60582;SDS011;46415;47.536;19.066;2022-12-24T09:08:07;14.87;;;10.73;;
60582;SDS011;46415;47.536;19.066;2022-12-24T09:11:11;19.00;;;10.85;;
60582;SDS011;46415;47.536;19.066;2022-12-24T09:14:16;17.87;;;11.75;;
60582;SDS011;46415;47.536;19.066;2022-12-24T09:17:19;18.95;;;10.43;;
60582;SDS011;46415;47.536;19.066;2022-12-24T09:20:22;12.52;;;9.38;;
60582;SDS011;46415;47.536;19.066;2022-12-24T09:23:25;15.85;;;10.55;;
60582;SDS011;46415;47.536;19.066;2022-12-24T09:26:28;14.85;;;10.30;;
60582;SDS011;46415;47.536;19.066;2022-12-24T09:29:33;17.90;;;10.48;;
60582;SDS011;46415;47.536;19.066;2022-12-24T09:32:35;17.33;;;10.48;;
60582;SDS011;46415;47.536;19.066;2022-12-24T09:35:38;15.88;;;9.93;;
60582;SDS011;46415;47.536;19.066;2022-12-24T09:38:41;13.20;;;9.18;;
60582;SDS011;46415;47.536;19.066;2022-12-24T09:48:13;9.65;;;5.68;;
60582;SDS011;46415;47.536;19.066;2022-12-24T09:51:33;8.48;;;5.50;;
60582;SDS011;46415;47.536;19.066;2022-12-24T09:54:42;10.68;;;5.90;;
60582;SDS011;46415;47.536;19.066;2022-12-24T09:57:52;6.55;;;5.12;;
60582;SDS011;46415;47.536;19.066;2022-12-24T10:00:56;7.03;;;5.28;;
60582;SDS011;46415;47.536;19.066;2022-12-24T10:04:04;5.93;;;4.60;;
60582;SDS011;46415;47.536;19.066;2022-12-24T10:17:32;6.80;;;4.90;;
60582;SDS011;46415;47.536;19.066;2022-12-24T10:21:09;3.17;;;2.10;;
60582;SDS011;46415;47.536;19.066;2022-12-24T10:27:51;2.45;;;1.65;;
60582;SDS011;46415;47.536;19.066;2022-12-24T10:30:58;1.87;;;1.50;;
60582;SDS011;46415;47.536;19.066;2022-12-24T10:34:06;2.30;;;1.67;;
60582;SDS011;46415;47.536;19.066;2022-12-24T10:37:22;2.08;;;1.33;;
60582;SDS011;46415;47.536;19.066;2022-12-24T10:43:42;1.50;;;1.40;;
60582;SDS011;46415;47.536;19.066;2022-12-24T10:46:47;2.00;;;1.23;;
60582;SDS011;46415;47.536;19.066;2022-12-24T10:49:59;1.75;;;1.40;;
60582;SDS011;46415;47.536;19.066;2022-12-24T10:53:12;1.45;;;1.20;;
60582;SDS011;46415;47.536;19.066;2022-12-24T10:56:20;1.02;;;1.00;;
60582;SDS011;46415;47.536;19.066;2022-12-24T10:59:27;2.67;;;1.27;;
60582;SDS011;46415;47.536;19.066;2022-12-24T11:02:33;1.92;;;1.50;;
60582;SDS011;46415;47.536;19.066;2022-12-24T11:05:38;1.83;;;1.50;;
60582;SDS011;46415;47.536;19.066;2022-12-24T11:08:43;1.95;;;1.50;;
60582;SDS011;46415;47.536;19.066;2022-12-24T11:11:46;1.67;;;1.05;;
60582;SDS011;46415;47.536;19.066;2022-12-24T11:14:57;1.62;;;1.23;;
60582;SDS011;46415;47.536;19.066;2022-12-24T11:18:05;1.83;;;1.37;;
60582;SDS011;46415;47.536;19.066;2022-12-24T11:21:20;3.03;;;1.60;;
60582;SDS011;46415;47.536;19.066;2022-12-24T11:24:34;2.60;;;1.20;;
60582;SDS011;46415;47.536;19.066;2022-12-24T11:27:40;2.70;;;1.00;;
60582;SDS011;46415;47.536;19.066;2022-12-24T11:37:34;4.87;;;1.23;;
60582;SDS011;46415;47.536;19.066;2022-12-24T11:40:39;2.22;;;1.05;;
60582;SDS011;46415;47.536;19.066;2022-12-24T11:43:47;1.60;;;0.90;;
60582;SDS011;46415;47.536;19.066;2022-12-24T11:46:53;2.15;;;1.00;;
60582;SDS011;46415;47.536;19.066;2022-12-24T11:53:27;1.00;;;0.90;;
60582;SDS011;46415;47.536;19.066;2022-12-24T11:56:42;3.33;;;0.95;;
60582;SDS011;46415;47.536;19.066;2022-12-24T11:59:48;3.60;;;1.33;;
60582;SDS011;46415;47.536;19.066;2022-12-24T12:02:53;2.42;;;0.95;;
60582;SDS011;46415;47.536;19.066;2022-12-24T12:05:59;2.47;;;0.80;;
60582;SDS011;46415;47.536;19.066;2022-12-24T12:09:05;3.45;;;1.33;;
60582;SDS011;46415;47.536;19.066;2022-12-24T12:12:26;3.72;;;1.08;;
60582;SDS011;46415;47.536;19.066;2022-12-24T12:15:34;3.53;;;1.48;;
60582;SDS011;46415;47.536;19.066;2022-12-24T12:18:43;4.25;;;1.15;;
60582;SDS011;46415;47.536;19.066;2022-12-24T12:21:50;1.42;;;0.80;;
60582;SDS011;46415;47.536;19.066;2022-12-24T12:24:54;1.27;;;0.93;;
60582;SDS011;46415;47.536;19.066;2022-12-24T12:27:59;1.60;;;1.00;;
60582;SDS011;46415;47.536;19.066;2022-12-24T12:31:09;2.15;;;1.17;;
60582;SDS011;46415;47.536;19.066;2022-12-24T12:37:39;2.42;;;1.12;;
60582;SDS011;46415;47.536;19.066;2022-12-24T12:41:31;1.50;;;1.05;;
60582;SDS011;46415;47.536;19.066;2022-12-24T12:44:35;1.90;;;0.90;;
60582;SDS011;46415;47.536;19.066;2022-12-24T12:51:49;1.20;;;0.90;;
60582;SDS011;46415;47.536;19.066;2022-12-24T12:55:38;1.90;;;1.23;;
60582;SDS011;46415;47.536;19.066;2022-12-24T12:58:40;2.22;;;0.82;;
60582;SDS011;46415;47.536;19.066;2022-12-24T13:12:26;2.30;;;1.00;;
60582;SDS011;46415;47.536;19.066;2022-12-24T13:22:25;1.45;;;0.93;;
60582;SDS011;46415;47.536;19.066;2022-12-24T13:25:34;3.33;;;1.20;;
60582;SDS011;46415;47.536;19.066;2022-12-24T13:28:40;1.92;;;1.17;;
60582;SDS011;46415;47.536;19.066;2022-12-24T13:31:44;1.95;;;0.90;;
60582;SDS011;46415;47.536;19.066;2022-12-24T13:44:42;2.55;;;1.45;;
60582;SDS011;46415;47.536;19.066;2022-12-24T13:47:44;1.37;;;1.00;;
60582;SDS011;46415;47.536;19.066;2022-12-24T13:50:49;2.65;;;1.30;;
60582;SDS011;46415;47.536;19.066;2022-12-24T13:53:56;2.12;;;1.25;;
60582;SDS011;46415;47.536;19.066;2022-12-24T13:57:01;1.80;;;1.00;;
60582;SDS011;46415;47.536;19.066;2022-12-24T14:00:29;2.00;;;1.05;;
60582;SDS011;46415;47.536;19.066;2022-12-24T14:03:34;1.50;;;1.40;;
60582;SDS011;46415;47.536;19.066;2022-12-24T14:06:43;4.82;;;1.52;;
60582;SDS011;46415;47.536;19.066;2022-12-24T14:09:53;1.98;;;1.42;;
60582;SDS011;46415;47.536;19.066;2022-12-24T14:12:55;2.92;;;1.17;;
60582;SDS011;46415;47.536;19.066;2022-12-24T14:15:59;4.00;;;1.10;;
60582;SDS011;46415;47.536;19.066;2022-12-24T14:19:24;2.30;;;0.98;;
60582;SDS011;46415;47.536;19.066;2022-12-24T14:22:40;1.15;;;0.88;;
60582;SDS011;46415;47.536;19.066;2022-12-24T14:25:46;2.63;;;1.33;;
60582;SDS011;46415;47.536;19.066;2022-12-24T14:29:02;2.35;;;1.50;;
60582;SDS011;46415;47.536;19.066;2022-12-24T14:32:14;1.35;;;0.85;;
60582;SDS011;46415;47.536;19.066;2022-12-24T14:38:23;2.20;;;1.00;;
60582;SDS011;46415;47.536;19.066;2022-12-24T14:45:28;1.23;;;1.10;;
60582;SDS011;46415;47.536;19.066;2022-12-24T14:48:39;2.60;;;1.62;;
60582;SDS011;46415;47.536;19.066;2022-12-24T14:58:52;2.30;;;1.12;;
60582;SDS011;46415;47.536;19.066;2022-12-24T15:01:55;1.48;;;1.23;;
60582;SDS011;46415;47.536;19.066;2022-12-24T15:05:05;3.28;;;1.35;;
60582;SDS011;46415;47.536;19.066;2022-12-24T15:08:15;2.05;;;1.50;;
60582;SDS011;46415;47.536;19.066;2022-12-24T15:11:21;1.37;;;1.10;;
60582;SDS011;46415;47.536;19.066;2022-12-24T15:14:26;2.60;;;1.25;;
60582;SDS011;46415;47.536;19.066;2022-12-24T15:17:32;1.85;;;1.42;;
60582;SDS011;46415;47.536;19.066;2022-12-24T15:20:36;2.42;;;1.60;;
60582;SDS011;46415;47.536;19.066;2022-12-24T15:23:43;2.05;;;1.55;;
60582;SDS011;46415;47.536;19.066;2022-12-24T15:26:51;5.47;;;2.05;;
60582;SDS011;46415;47.536;19.066;2022-12-24T15:29:55;3.85;;;1.83;;
60582;SDS011;46415;47.536;19.066;2022-12-24T15:32:59;3.58;;;1.60;;
60582;SDS011;46415;47.536;19.066;2022-12-24T15:36:02;1.45;;;1.35;;
60582;SDS011;46415;47.536;19.066;2022-12-24T15:39:07;1.65;;;1.20;;
60582;SDS011;46415;47.536;19.066;2022-12-24T15:42:17;3.87;;;1.75;;
60582;SDS011;46415;47.536;19.066;2022-12-24T15:45:27;1.95;;;1.15;;
60582;SDS011;46415;47.536;19.066;2022-12-24T15:48:32;2.47;;;1.70;;
60582;SDS011;46415;47.536;19.066;2022-12-24T15:51:37;1.40;;;1.30;;
60582;SDS011;46415;47.536;19.066;2022-12-24T15:54:43;1.80;;;1.70;;
60582;SDS011;46415;47.536;19.066;2022-12-24T15:57:47;1.52;;;1.23;;
60582;SDS011;46415;47.536;19.066;2022-12-24T16:01:01;3.10;;;2.15;;
60582;SDS011;46415;47.536;19.066;2022-12-24T16:04:14;2.83;;;1.40;;
60582;SDS011;46415;47.536;19.066;2022-12-24T16:07:26;2.30;;;1.55;;
60582;SDS011;46415;47.536;19.066;2022-12-24T16:14:11;2.55;;;1.75;;
60582;SDS011;46415;47.536;19.066;2022-12-24T16:17:22;3.83;;;2.10;;
60582;SDS011;46415;47.536;19.066;2022-12-24T16:20:27;3.28;;;1.62;;
60582;SDS011;46415;47.536;19.066;2022-12-24T16:23:38;1.92;;;1.45;;
60582;SDS011;46415;47.536;19.066;2022-12-24T16:26:47;3.17;;;1.70;;
60582;SDS011;46415;47.536;19.066;2022-12-24T16:29:50;2.78;;;1.37;;
60582;SDS011;46415;47.536;19.066;2022-12-24T16:32:53;7.85;;;2.10;;
60582;SDS011;46415;47.536;19.066;2022-12-24T16:35:56;3.12;;;2.00;;
60582;SDS011;46415;47.536;19.066;2022-12-24T16:38:59;1.10;;;1.05;;
60582;SDS011;46415;47.536;19.066;2022-12-24T16:42:20;4.10;;;1.67;;
60582;SDS011;46415;47.536;19.066;2022-12-24T16:45:41;1.62;;;1.48;;
60582;SDS011;46415;47.536;19.066;2022-12-24T16:48:47;1.75;;;1.10;;
60582;SDS011;46415;47.536;19.066;2022-12-24T16:51:50;2.60;;;1.83;;
60582;SDS011;46415;47.536;19.066;2022-12-24T16:54:53;6.00;;;2.28;;
60582;SDS011;46415;47.536;19.066;2022-12-24T16:57:57;3.03;;;1.70;;
60582;SDS011;46415;47.536;19.066;2022-12-24T17:01:04;3.70;;;1.55;;
60582;SDS011;46415;47.536;19.066;2022-12-24T17:04:09;5.18;;;2.42;;
60582;SDS011;46415;47.536;19.066;2022-12-24T17:07:13;3.70;;;2.47;;
60582;SDS011;46415;47.536;19.066;2022-12-24T17:10:17;3.53;;;1.80;;
60582;SDS011;46415;47.536;19.066;2022-12-24T17:13:20;2.10;;;1.92;;
60582;SDS011;46415;47.536;19.066;2022-12-24T17:16:23;3.90;;;1.52;;
60582;SDS011;46415;47.536;19.066;2022-12-24T17:19:26;6.07;;;2.12;;
60582;SDS011;46415;47.536;19.066;2022-12-24T17:22:29;2.70;;;1.90;;
60582;SDS011;46415;47.536;19.066;2022-12-24T17:25:34;4.55;;;1.65;;
60582;SDS011;46415;47.536;19.066;2022-12-24T17:28:37;1.55;;;1.42;;
60582;SDS011;46415;47.536;19.066;2022-12-24T17:31:40;2.90;;;1.80;;
60582;SDS011;46415;47.536;19.066;2022-12-24T17:34:44;4.20;;;1.80;;
60582;SDS011;46415;47.536;19.066;2022-12-24T17:37:47;4.28;;;1.80;;
60582;SDS011;46415;47.536;19.066;2022-12-24T17:40:50;2.42;;;1.87;;
60582;SDS011;46415;47.536;19.066;2022-12-24T17:43:53;2.95;;;2.03;;
60582;SDS011;46415;47.536;19.066;2022-12-24T17:46:55;2.37;;;1.77;;
60582;SDS011;46415;47.536;19.066;2022-12-24T17:49:58;3.53;;;1.90;;
60582;SDS011;46415;47.536;19.066;2022-12-24T17:53:01;3.42;;;1.70;;
60582;SDS011;46415;47.536;19.066;2022-12-24T17:56:04;3.53;;;2.37;;
60582;SDS011;46415;47.536;19.066;2022-12-24T17:59:08;4.47;;;2.37;;
60582;SDS011;46415;47.536;19.066;2022-12-24T18:02:11;2.87;;;2.05;;
60582;SDS011;46415;47.536;19.066;2022-12-24T18:05:14;2.22;;;2.03;;
60582;SDS011;46415;47.536;19.066;2022-12-24T18:08:18;5.15;;;1.87;;
60582;SDS011;46415;47.536;19.066;2022-12-24T18:11:23;3.72;;;1.83;;
60582;SDS011;46415;47.536;19.066;2022-12-24T18:14:30;2.05;;;1.95;;
60582;SDS011;46415;47.536;19.066;2022-12-24T18:17:33;2.00;;;1.75;;
60582;SDS011;46415;47.536;19.066;2022-12-24T18:20:36;2.67;;;2.08;;
60582;SDS011;46415;47.536;19.066;2022-12-24T18:23:48;3.55;;;2.47;;
60582;SDS011;46415;47.536;19.066;2022-12-24T18:26:51;3.87;;;2.67;;
60582;SDS011;46415;47.536;19.066;2022-12-24T18:29:54;3.50;;;2.60;;
60582;SDS011;46415;47.536;19.066;2022-12-24T18:32:58;11.15;;;2.60;;
60582;SDS011;46415;47.536;19.066;2022-12-24T18:36:02;3.10;;;2.03;;
60582;SDS011;46415;47.536;19.066;2022-12-24T18:39:05;5.45;;;2.33;;
60582;SDS011;46415;47.536;19.066;2022-12-24T18:42:08;6.93;;;3.50;;
60582;SDS011;46415;47.536;19.066;2022-12-24T18:45:15;3.57;;;2.63;;
60582;SDS011;46415;47.536;19.066;2022-12-24T18:48:18;3.53;;;2.62;;
60582;SDS011;46415;47.536;19.066;2022-12-24T18:51:22;3.17;;;2.47;;
60582;SDS011;46415;47.536;19.066;2022-12-24T18:54:28;4.72;;;3.05;;
60582;SDS011;46415;47.536;19.066;2022-12-24T18:57:30;7.32;;;2.87;;
60582;SDS011;46415;47.536;19.066;2022-12-24T19:00:33;6.80;;;3.72;;
60582;SDS011;46415;47.536;19.066;2022-12-24T19:03:36;4.03;;;3.08;;
60582;SDS011;46415;47.536;19.066;2022-12-24T19:06:40;5.70;;;3.42;;
60582;SDS011;46415;47.536;19.066;2022-12-24T19:09:52;5.40;;;2.92;;
60582;SDS011;46415;47.536;19.066;2022-12-24T19:12:55;6.20;;;2.72;;
60582;SDS011;46415;47.536;19.066;2022-12-24T19:15:58;5.72;;;2.92;;
60582;SDS011;46415;47.536;19.066;2022-12-24T19:19:02;3.37;;;2.60;;
60582;SDS011;46415;47.536;19.066;2022-12-24T19:22:06;5.37;;;3.40;;
60582;SDS011;46415;47.536;19.066;2022-12-24T19:25:09;3.60;;;2.35;;
60582;SDS011;46415;47.536;19.066;2022-12-24T19:28:11;5.47;;;3.37;;
60582;SDS011;46415;47.536;19.066;2022-12-24T19:31:16;2.80;;;2.47;;
60582;SDS011;46415;47.536;19.066;2022-12-24T19:34:23;4.00;;;2.80;;
60582;SDS011;46415;47.536;19.066;2022-12-24T19:37:26;2.03;;;1.83;;
60582;SDS011;46415;47.536;19.066;2022-12-24T19:40:28;4.30;;;2.35;;
60582;SDS011;46415;47.536;19.066;2022-12-24T19:43:31;4.82;;;2.17;;
60582;SDS011;46415;47.536;19.066;2022-12-24T19:46:34;4.00;;;2.25;;
60582;SDS011;46415;47.536;19.066;2022-12-24T19:49:38;3.58;;;2.53;;
60582;SDS011;46415;47.536;19.066;2022-12-24T19:52:41;4.82;;;2.53;;
60582;SDS011;46415;47.536;19.066;2022-12-24T19:55:45;3.75;;;2.17;;
60582;SDS011;46415;47.536;19.066;2022-12-24T19:58:48;2.87;;;2.05;;